createdAt,value
2022-11-29T00:01:05.461Z,135.85
2022-11-29T00:03:32.739Z,137.68
2022-11-29T00:06:12.253Z,126.32
2022-11-29T00:08:39.065Z,96.63
2022-11-29T00:11:07.095Z,93.07
2022-11-29T00:13:33.995Z,100.75
2022-11-29T00:16:09.298Z,109.78
2022-11-29T00:18:36.315Z,96.88
2022-11-29T00:21:09.238Z,117.63
2022-11-29T00:23:36.171Z,103.88
2022-11-29T00:26:04.833Z,115.40
2022-11-29T00:28:31.197Z,165.95
2022-11-29T00:30:57.595Z,112.50
2022-11-29T00:33:24.102Z,115.80
2022-11-29T00:35:50.461Z,129.98
2022-11-29T00:38:16.806Z,172.73
2022-11-29T00:40:43.166Z,159.05
2022-11-29T00:43:09.521Z,109.90
2022-11-29T00:45:35.918Z,101.33
2022-11-29T00:48:02.335Z,120.25
2022-11-29T00:50:28.689Z,102.30
2022-11-29T00:52:55.042Z,102.90
2022-11-29T00:55:21.429Z,153.43
2022-11-29T00:57:47.773Z,202.60
2022-11-29T01:00:14.743Z,123.15
2022-11-29T01:02:41.184Z,179.07
2022-11-29T01:05:07.984Z,113.80
2022-11-29T01:07:34.342Z,239.65
2022-11-29T01:10:00.751Z,241.90
2022-11-29T01:12:27.281Z,195.10
2022-11-29T01:14:53.662Z,173.80
2022-11-29T01:17:20.030Z,160.00
2022-11-29T01:19:50.644Z,217.18
2022-11-29T01:22:17.404Z,138.63
2022-11-29T01:24:44.032Z,205.52
2022-11-29T01:27:10.635Z,178.27
2022-11-29T01:29:37.044Z,257.80
2022-11-29T01:32:03.601Z,161.85
2022-11-29T01:34:30.138Z,231.83
2022-11-29T01:36:56.498Z,231.45
2022-11-29T01:39:22.837Z,302.63
2022-11-29T01:41:49.184Z,334.48
2022-11-29T01:44:15.464Z,143.70
2022-11-29T01:46:45.013Z,193.50
2022-11-29T01:49:19.042Z,193.68
2022-11-29T01:51:49.286Z,169.48
2022-11-29T01:54:15.807Z,349.00
2022-11-29T01:56:45.117Z,170.77
2022-11-29T01:59:15.126Z,183.30
2022-11-29T02:01:42.167Z,209.88
2022-11-29T02:04:08.742Z,230.85
2022-11-29T02:06:36.994Z,122.30
2022-11-29T02:09:04.457Z,356.52
2022-11-29T02:11:50.044Z,234.70
2022-11-29T02:14:36.680Z,140.55
2022-11-29T02:17:20.468Z,276.48
2022-11-29T02:20:11.328Z,180.77
2022-11-29T02:22:48.208Z,184.35
2022-11-29T02:26:00.561Z,142.20
2022-11-29T02:28:48.813Z,243.55
2022-11-29T02:31:55.063Z,227.20
2022-11-29T02:34:40.509Z,234.48
2022-11-29T02:37:27.994Z,171.38
2022-11-29T02:40:23.196Z,143.27
2022-11-29T02:43:04.513Z,131.93
2022-11-29T02:45:45.773Z,143.63
2022-11-29T02:48:21.364Z,244.18
2022-11-29T02:50:57.037Z,282.92
2022-11-29T02:53:44.150Z,393.50
2022-11-29T02:56:43.621Z,163.95
2022-11-29T02:59:29.527Z,390.25
2022-11-29T03:02:16.412Z,228.50
2022-11-29T03:04:54.807Z,281.15
2022-11-29T03:07:45.036Z,313.27
2022-11-29T03:10:54.341Z,228.68
2022-11-29T03:13:27.959Z,145.68
2022-11-29T03:16:27.679Z,213.40
2022-11-29T03:19:15.271Z,178.73
2022-11-29T03:22:11.894Z,293.33
2022-11-29T03:25:03.136Z,136.80
2022-11-29T03:27:42.304Z,134.07
2022-11-29T03:30:12.591Z,237.75
2022-11-29T03:32:45.033Z,345.00
2022-11-29T03:35:20.898Z,188.93
2022-11-29T03:38:20.775Z,245.20
2022-11-29T03:41:11.822Z,249.23
2022-11-29T03:44:00.915Z,277.20
2022-11-29T03:46:42.629Z,150.77
2022-11-29T03:49:18.271Z,153.03
2022-11-29T03:52:12.699Z,141.38
2022-11-29T03:55:08.902Z,170.00
2022-11-29T03:57:53.553Z,120.78
2022-11-29T04:00:20.621Z,165.07
2022-11-29T04:03:24.622Z,135.77
2022-11-29T04:06:07.657Z,137.20
2022-11-29T04:08:49.678Z,153.45
2022-11-29T04:11:37.491Z,174.35
2022-11-29T04:14:25.487Z,206.77
2022-11-29T04:17:22.164Z,167.40
2022-11-29T04:20:02.523Z,219.70
2022-11-29T04:22:53.799Z,159.80
2022-11-29T04:26:03.742Z,154.75
2022-11-29T04:28:55.012Z,139.85
2022-11-29T04:31:47.958Z,133.17
2022-11-29T04:34:34.895Z,182.70
2022-11-29T04:37:38.169Z,166.15
2022-11-29T04:40:26.195Z,117.30
2022-11-29T04:43:11.345Z,118.88
2022-11-29T04:46:03.049Z,123.13
2022-11-29T04:48:42.720Z,108.78
2022-11-29T04:51:28.660Z,100.15
2022-11-29T04:54:27.448Z,101.90
2022-11-29T04:57:11.715Z,146.20
2022-11-29T05:00:08.066Z,147.43
2022-11-29T05:02:49.515Z,113.85
2022-11-29T05:05:19.122Z,93.28
2022-11-29T05:07:54.727Z,122.43
2022-11-29T05:10:43.199Z,173.50
2022-11-29T05:13:20.488Z,111.67
2022-11-29T05:15:58.968Z,113.47
2022-11-29T05:18:57.482Z,87.03
2022-11-29T05:21:49.465Z,92.00
2022-11-29T05:24:40.937Z,95.53
2022-11-29T05:27:28.834Z,99.00
2022-11-29T05:30:05.244Z,87.70
2022-11-29T05:32:51.964Z,92.95
2022-11-29T05:35:40.272Z,118.38
2022-11-29T05:38:43.768Z,160.88
2022-11-29T05:41:21.917Z,139.97
2022-11-29T05:44:03.957Z,104.80
2022-11-29T05:46:42.792Z,117.95
2022-11-29T05:49:24.150Z,94.75
2022-11-29T05:52:03.827Z,107.25
2022-11-29T05:54:44.948Z,115.53
2022-11-29T05:57:21.613Z,87.78
2022-11-29T05:59:51.078Z,114.30
2022-11-29T06:02:26.661Z,81.60
2022-11-29T06:04:57.130Z,80.07
2022-11-29T06:07:38.644Z,136.97
2022-11-29T06:10:11.486Z,122.50
2022-11-29T06:12:38.486Z,103.60
2022-11-29T06:15:13.869Z,160.55
2022-11-29T06:18:07.857Z,94.90
2022-11-29T06:20:54.486Z,74.57
2022-11-29T06:23:59.049Z,107.07
2022-11-29T06:26:50.466Z,86.03
2022-11-29T06:29:49.674Z,177.43
2022-11-29T06:32:34.436Z,99.28
2022-11-29T06:35:19.555Z,166.07
2022-11-29T06:37:51.697Z,154.88
2022-11-29T06:40:18.126Z,127.15
2022-11-29T06:42:44.662Z,159.32
2022-11-29T06:45:13.831Z,102.10
2022-11-29T06:47:58.742Z,142.17
2022-11-29T06:50:55.769Z,80.57
2022-11-29T06:53:39.264Z,92.93
2022-11-29T06:56:20.526Z,81.55
2022-11-29T06:59:05.336Z,112.68
2022-11-29T07:01:46.244Z,70.40
2022-11-29T07:04:20.032Z,121.70
2022-11-29T07:06:46.978Z,69.43
2022-11-29T07:09:16.642Z,78.90
2022-11-29T07:11:43.709Z,82.30
2022-11-29T07:14:10.771Z,68.93
2022-11-29T07:16:45.266Z,64.57
2022-11-29T07:19:42.592Z,88.53
2022-11-29T07:22:25.043Z,63.35
2022-11-29T07:24:58.715Z,82.93
2022-11-29T07:27:30.782Z,69.83
2022-11-29T07:30:22.151Z,77.95
2022-11-29T07:33:32.048Z,58.85
2022-11-29T07:36:07.469Z,75.65
2022-11-29T07:39:04.668Z,78.18
2022-11-29T07:41:46.225Z,110.13
2022-11-29T07:44:43.651Z,72.80
2022-11-29T07:47:10.301Z,73.15
2022-11-29T07:49:36.621Z,70.35
2022-11-29T07:52:02.982Z,90.28
2022-11-29T07:54:30.129Z,80.00
2022-11-29T07:56:56.453Z,93.30
2022-11-29T07:59:22.827Z,84.05
2022-11-29T08:01:49.236Z,90.97
2022-11-29T08:04:15.629Z,69.35
2022-11-29T08:06:41.991Z,73.57
2022-11-29T08:09:08.585Z,98.40
2022-11-29T08:11:34.982Z,68.32
2022-11-29T08:14:02.872Z,64.22
2022-11-29T08:16:29.673Z,91.18
2022-11-29T08:18:56.136Z,58.73
2022-11-29T08:21:22.600Z,85.05
2022-11-29T08:23:49.781Z,54.40
2022-11-29T08:26:18.229Z,63.60
2022-11-29T08:28:44.778Z,54.65
2022-11-29T08:31:13.190Z,53.67
2022-11-29T08:33:42.299Z,54.80
2022-11-29T08:36:12.103Z,64.18
2022-11-29T08:38:38.514Z,58.50
2022-11-29T08:41:07.725Z,46.75
2022-11-29T08:43:34.373Z,45.97
2022-11-29T08:46:00.828Z,45.65
2022-11-29T08:48:27.417Z,49.00
2022-11-29T08:50:55.444Z,46.05
2022-11-29T08:53:41.097Z,46.25
2022-11-29T08:56:59.576Z,42.10
2022-11-29T08:58:58.875Z,43.22
2022-11-29T09:01:25.268Z,45.72
2022-11-29T09:04:02.296Z,50.72
2022-11-29T09:06:34.399Z,48.15
2022-11-29T09:09:01.305Z,47.53
2022-11-29T09:11:29.527Z,39.58
2022-11-29T09:13:58.389Z,37.15
2022-11-29T09:16:27.963Z,40.95
2022-11-29T09:18:55.915Z,46.35
2022-11-29T09:21:24.644Z,38.63
2022-11-29T09:23:58.424Z,38.95
2022-11-29T09:26:31.559Z,42.25
2022-11-29T09:29:02.934Z,39.20
2022-11-29T09:31:31.181Z,42.20
2022-11-29T09:33:57.709Z,35.00
2022-11-29T09:36:28.465Z,40.85
2022-11-29T09:38:55.507Z,39.75
2022-11-29T09:41:30.696Z,34.28
2022-11-29T09:44:03.033Z,38.10
2022-11-29T09:46:58.877Z,36.93
2022-11-29T09:49:46.369Z,36.92
2022-11-29T09:52:40.111Z,35.60
2022-11-29T09:55:26.539Z,31.48
2022-11-29T09:57:55.183Z,35.28
2022-11-29T10:00:21.952Z,36.47
2022-11-29T10:02:54.434Z,35.33
2022-11-29T10:05:56.173Z,36.28
2022-11-29T10:08:31.477Z,38.67
2022-11-29T10:11:14.189Z,32.53
2022-11-29T10:13:45.680Z,30.03
2022-11-29T10:16:20.364Z,30.10
2022-11-29T10:18:58.357Z,34.67
2022-11-29T10:21:32.221Z,32.78
2022-11-29T10:24:04.365Z,35.90
2022-11-29T10:26:35.168Z,34.13
2022-11-29T10:29:02.110Z,32.20
2022-11-29T10:31:33.164Z,31.10
2022-11-29T10:34:02.233Z,33.10
2022-11-29T10:36:43.353Z,37.67
2022-11-29T10:39:15.794Z,30.73
2022-11-29T10:41:42.244Z,29.88
2022-11-29T10:44:14.500Z,30.95
2022-11-29T10:46:41.210Z,32.78
2022-11-29T10:49:15.198Z,31.85
2022-11-29T10:51:41.614Z,32.33
2022-11-29T10:54:32.541Z,30.42
2022-11-29T10:57:00.694Z,30.85
2022-11-29T10:59:32.314Z,32.42
2022-11-29T11:01:58.911Z,27.40
2022-11-29T11:04:33.667Z,27.80
2022-11-29T11:07:02.634Z,23.60
2022-11-29T11:09:42.292Z,26.58
2022-11-29T11:12:14.689Z,32.42
2022-11-29T11:14:42.084Z,28.52
2022-11-29T11:17:30.060Z,28.47
2022-11-29T11:20:08.667Z,31.38
2022-11-29T11:22:39.741Z,27.67
2022-11-29T11:25:24.228Z,32.25
2022-11-29T11:27:50.961Z,34.58
2022-11-29T11:30:23.943Z,28.97
2022-11-29T11:33:29.621Z,29.83
2022-11-29T11:36:12.823Z,28.10
2022-11-29T11:39:12.531Z,29.00
2022-11-29T11:42:01.059Z,32.20
2022-11-29T11:44:49.848Z,34.40
2022-11-29T11:47:27.524Z,31.55
2022-11-29T11:49:59.985Z,32.05
2022-11-29T11:52:44.859Z,30.40
2022-11-29T11:55:21.446Z,31.80
2022-11-29T11:58:10.209Z,32.10
2022-11-29T12:03:50.764Z,30.90
2022-11-29T12:06:36.919Z,33.35
2022-11-29T12:09:09.796Z,28.42
2022-11-29T12:12:05.638Z,32.77
2022-11-29T12:14:31.968Z,33.00
2022-11-29T12:17:26.342Z,32.58
2022-11-29T12:20:10.105Z,29.65
2022-11-29T12:23:11.436Z,29.98
2022-11-29T12:25:53.113Z,29.97
2022-11-29T12:28:21.176Z,28.77
2022-11-29T12:31:06.226Z,28.05
2022-11-29T12:33:38.824Z,28.20
2022-11-29T12:36:25.085Z,27.10
2022-11-29T12:38:54.318Z,30.60
2022-11-29T12:41:34.922Z,31.00
2022-11-29T12:44:10.680Z,27.83
2022-11-29T12:46:38.423Z,32.20
2022-11-29T12:49:22.490Z,26.80
2022-11-29T12:52:20.941Z,29.37
2022-11-29T12:55:08.809Z,33.53
2022-11-29T12:57:58.312Z,28.77
2022-11-29T13:00:28.771Z,30.33
2022-11-29T13:03:27.550Z,36.38
2022-11-29T13:06:07.766Z,31.73
2022-11-29T13:08:52.698Z,30.45
2022-11-29T13:11:30.196Z,31.15
2022-11-29T13:17:21.400Z,36.60
2022-11-29T13:19:53.800Z,31.23
2022-11-29T13:23:12.202Z,32.10
2022-11-29T13:25:42.529Z,31.67
2022-11-29T13:28:21.008Z,28.55
2022-11-29T13:30:47.612Z,27.75
2022-11-29T13:33:26.243Z,28.63
2022-11-29T13:36:17.910Z,28.95
2022-11-29T13:39:26.841Z,30.90
2022-11-29T13:42:04.625Z,31.30
2022-11-29T13:44:39.969Z,32.95
2022-11-29T13:47:14.754Z,31.40
2022-11-29T13:50:02.657Z,36.67
2022-11-29T13:52:40.144Z,34.03
2022-11-29T13:55:12.714Z,33.33
2022-11-29T13:58:21.972Z,31.70
2022-11-29T14:00:51.016Z,31.17
2022-11-29T14:03:23.368Z,32.08
2022-11-29T14:05:51.801Z,30.52
2022-11-29T14:08:25.736Z,32.40
2022-11-29T14:10:56.614Z,29.88
2022-11-29T14:13:31.009Z,30.27
2022-11-29T14:15:59.990Z,26.85
2022-11-29T14:18:40.616Z,31.00
2022-11-29T14:21:07.211Z,29.80
2022-11-29T14:23:40.355Z,29.08
2022-11-29T14:26:06.693Z,33.57
2022-11-29T14:28:40.928Z,37.78
2022-11-29T14:31:09.493Z,35.13
2022-11-29T14:34:05.538Z,40.35
2022-11-29T14:37:04.230Z,38.05
2022-11-29T14:39:47.482Z,41.27
2022-11-29T14:42:19.141Z,41.50
2022-11-29T14:44:51.137Z,40.25
2022-11-29T14:47:29.668Z,33.63
2022-11-29T14:49:57.566Z,37.25
2022-11-29T14:52:35.780Z,31.07
2022-11-29T14:55:27.806Z,33.58
2022-11-29T14:58:06.191Z,36.88
2022-11-29T15:00:32.641Z,40.65
2022-11-29T15:03:12.938Z,34.15
2022-11-29T15:06:02.263Z,32.10
2022-11-29T15:08:47.736Z,31.42
2022-11-29T15:11:36.374Z,35.20
2022-11-29T15:14:28.584Z,34.78
2022-11-29T15:16:57.958Z,30.33
2022-11-29T15:19:57.656Z,32.60
2022-11-29T15:22:56.217Z,30.48
2022-11-29T15:25:25.909Z,33.30
2022-11-29T15:27:54.174Z,30.25
2022-11-29T15:30:38.333Z,36.47
2022-11-29T15:33:19.712Z,32.53
2022-11-29T15:35:54.909Z,29.10
2022-11-29T15:38:22.804Z,24.67
2022-11-29T15:40:54.533Z,28.80
2022-11-29T15:43:30.359Z,28.23
2022-11-29T15:45:58.258Z,26.63
2022-11-29T15:48:27.094Z,26.17
2022-11-29T15:50:59.505Z,31.02
2022-11-29T15:53:38.638Z,33.53
2022-11-29T15:56:30.829Z,35.60
2022-11-29T15:59:02.265Z,32.27
2022-11-29T16:01:29.092Z,35.00
2022-11-29T16:03:57.865Z,31.13
2022-11-29T16:06:39.233Z,32.70
2022-11-29T16:09:17.572Z,33.45
2022-11-29T16:11:45.213Z,30.07
2022-11-29T16:14:11.571Z,33.47
2022-11-29T16:16:39.926Z,35.95
2022-11-29T16:19:10.760Z,37.72
2022-11-29T16:21:37.165Z,35.08
2022-11-29T16:24:19.476Z,36.40
2022-11-29T16:26:47.153Z,36.47
2022-11-29T16:29:41.657Z,40.00
2022-11-29T16:32:31.531Z,40.38
2022-11-29T16:35:12.772Z,41.88
2022-11-29T16:37:42.467Z,45.93
2022-11-29T16:40:31.301Z,39.25
2022-11-29T16:43:03.370Z,42.50
2022-11-29T16:45:34.279Z,34.25
2022-11-29T16:48:02.690Z,30.08
2022-11-29T16:50:30.960Z,30.37
2022-11-29T16:53:39.994Z,27.20
2022-11-29T16:56:11.308Z,27.23
2022-11-29T16:59:17.188Z,27.60
2022-11-29T17:01:28.598Z,29.45
2022-11-29T17:03:57.441Z,28.00
2022-11-29T17:06:25.478Z,29.52
2022-11-29T17:08:53.413Z,28.48
2022-11-29T17:11:20.050Z,31.80
2022-11-29T17:13:47.798Z,32.58
2022-11-29T17:16:16.680Z,30.37
2022-11-29T17:18:44.779Z,31.30
2022-11-29T17:21:29.314Z,33.42
2022-11-29T17:23:55.809Z,32.28
2022-11-29T17:26:23.672Z,29.33
2022-11-29T17:28:51.886Z,29.70
2022-11-29T17:31:21.560Z,26.20
2022-11-29T17:33:48.346Z,26.42
2022-11-29T17:36:17.246Z,24.23
2022-11-29T17:38:44.974Z,24.55
2022-11-29T17:41:13.687Z,26.37
2022-11-29T17:43:40.624Z,25.83
2022-11-29T17:46:13.326Z,24.90
2022-11-29T17:48:39.833Z,24.02
2022-11-29T17:51:28.803Z,24.08
2022-11-29T17:53:55.004Z,20.23
2022-11-29T17:56:24.634Z,22.98
2022-11-29T17:58:52.446Z,22.55
2022-11-29T18:01:21.643Z,22.17
2022-11-29T18:03:50.767Z,23.95
2022-11-29T18:06:19.965Z,22.00
2022-11-29T18:08:48.962Z,21.60
2022-11-29T18:11:20.733Z,22.67
2022-11-29T18:13:47.509Z,21.33
2022-11-29T18:16:23.035Z,22.77
2022-11-29T18:19:01.589Z,23.97
2022-11-29T18:21:28.867Z,24.52
2022-11-29T18:23:55.545Z,24.63
2022-11-29T18:26:26.737Z,26.55
2022-11-29T18:28:53.257Z,24.15
2022-11-29T18:31:22.672Z,23.00
2022-11-29T18:33:52.035Z,21.65
2022-11-29T18:36:24.469Z,23.00
2022-11-29T18:38:56.658Z,24.60
2022-11-29T18:41:24.448Z,29.33
2022-11-29T18:44:01.473Z,26.60
2022-11-29T18:46:36.756Z,24.73
2022-11-29T18:49:09.876Z,22.92
2022-11-29T18:51:37.161Z,21.70
2022-11-29T18:54:04.703Z,20.50
2022-11-29T18:56:34.272Z,23.70
2022-11-29T18:59:04.259Z,23.52
2022-11-29T19:01:34.278Z,26.00
2022-11-29T19:04:01.899Z,26.60
2022-11-29T19:06:38.586Z,27.20
2022-11-29T19:09:06.524Z,29.70
2022-11-29T19:11:34.264Z,26.85
2022-11-29T19:14:03.995Z,30.58
2022-11-29T19:16:32.448Z,31.77
2022-11-29T19:19:00.359Z,31.40
2022-11-29T19:21:31.672Z,31.27
2022-11-29T19:24:00.310Z,30.98
2022-11-29T19:26:28.451Z,31.83
2022-11-29T19:28:55.270Z,31.50
2022-11-29T19:31:25.078Z,29.50
2022-11-29T19:33:52.637Z,31.33
2022-11-29T19:36:23.812Z,32.42
2022-11-29T19:38:53.859Z,35.95
2022-11-29T19:41:29.503Z,32.75
2022-11-29T19:43:57.700Z,30.92
2022-11-29T19:46:26.633Z,30.50
2022-11-29T19:48:54.704Z,32.78
2022-11-29T19:51:21.810Z,32.50
2022-11-29T19:53:52.400Z,30.55
2022-11-29T19:56:20.423Z,32.53
2022-11-29T19:58:47.194Z,33.67
2022-11-29T20:01:18.999Z,34.38
2022-11-29T20:03:46.017Z,35.17
2022-11-29T20:06:13.595Z,41.70
2022-11-29T20:08:40.683Z,43.20
2022-11-29T20:11:15.287Z,48.83
2022-11-29T20:13:45.189Z,53.85
2022-11-29T20:16:14.557Z,66.50
2022-11-29T20:18:50.124Z,66.97
2022-11-29T20:21:22.231Z,69.53
2022-11-29T20:23:49.260Z,55.60
2022-11-29T20:26:19.003Z,49.15
2022-11-29T20:28:46.942Z,56.30
2022-11-29T20:31:16.456Z,45.15
2022-11-29T20:33:46.190Z,46.10
2022-11-29T20:36:18.475Z,42.97
2022-11-29T20:39:11.280Z,38.65
2022-11-29T20:41:44.164Z,39.72
2022-11-29T20:44:17.988Z,36.35
2022-11-29T20:46:44.572Z,36.08
2022-11-29T20:49:14.109Z,33.33
2022-11-29T20:51:58.399Z,36.13
2022-11-29T20:54:24.763Z,31.08
2022-11-29T20:56:51.110Z,32.08
2022-11-29T20:59:17.484Z,31.75
2022-11-29T21:01:43.918Z,32.37
2022-11-29T21:04:10.517Z,32.65
2022-11-29T21:06:38.305Z,32.15
2022-11-29T21:09:05.655Z,29.67
2022-11-29T21:11:32.387Z,32.22
2022-11-29T21:14:03.395Z,30.47
2022-11-29T21:16:31.071Z,34.30
2022-11-29T21:19:00.295Z,31.48
2022-11-29T21:21:44.725Z,34.35
2022-11-29T21:24:36.613Z,35.72
2022-11-29T21:27:03.520Z,36.23
2022-11-29T21:29:30.143Z,33.15
2022-11-29T21:31:56.809Z,36.97
2022-11-29T21:34:23.204Z,41.40
2022-11-29T21:36:55.517Z,36.38
2022-11-29T21:39:24.231Z,33.80
2022-11-29T21:41:50.712Z,37.83
2022-11-29T21:44:17.045Z,37.40
2022-11-29T21:46:43.464Z,36.60
2022-11-29T21:49:09.912Z,41.08
2022-11-29T21:51:36.285Z,40.60
2022-11-29T21:54:03.002Z,38.28
2022-11-29T21:56:29.458Z,40.35
2022-11-29T21:58:55.793Z,39.45
2022-11-29T22:01:22.288Z,40.00
2022-11-29T22:03:51.867Z,40.67
2022-11-29T22:06:20.344Z,43.47
2022-11-29T22:08:48.141Z,42.40
2022-11-29T22:11:16.915Z,40.42
2022-11-29T22:14:03.087Z,42.28
2022-11-29T22:16:29.999Z,43.90
2022-11-29T22:18:56.457Z,43.10
2022-11-29T22:21:22.916Z,41.33
2022-11-29T22:23:49.456Z,45.75
2022-11-29T22:26:15.841Z,46.78
2022-11-29T22:28:42.225Z,45.67
2022-11-29T22:31:10.811Z,47.05
2022-11-29T22:33:38.164Z,47.22
2022-11-29T22:36:10.544Z,50.75
2022-11-29T22:38:37.839Z,52.67
2022-11-29T22:41:07.336Z,52.93
2022-11-29T22:43:34.193Z,60.70
2022-11-29T22:46:15.181Z,53.20
2022-11-29T22:48:43.781Z,53.63
2022-11-29T22:51:13.211Z,51.97
2022-11-29T22:53:41.918Z,55.33
2022-11-29T22:56:10.711Z,55.60
2022-11-29T22:58:37.440Z,59.03
2022-11-29T23:01:09.406Z,61.40
2022-11-29T23:03:37.230Z,55.67
2022-11-29T23:06:17.540Z,58.20
2022-11-29T23:08:45.360Z,69.38
2022-11-29T23:11:14.503Z,59.28
2022-11-29T23:13:42.645Z,64.47
2022-11-29T23:16:12.579Z,67.32
2022-11-29T23:18:39.919Z,68.10
2022-11-29T23:21:09.429Z,65.63
2022-11-29T23:23:36.982Z,67.60
2022-11-29T23:26:04.701Z,66.55
2022-11-29T23:28:31.541Z,76.85
2022-11-29T23:30:59.019Z,78.00
2022-11-29T23:33:26.919Z,71.00
2022-11-29T23:36:02.834Z,70.13
2022-11-29T23:38:29.517Z,76.25
2022-11-29T23:40:55.955Z,64.97
2022-11-29T23:43:22.665Z,73.93
2022-11-29T23:45:49.511Z,70.07
2022-11-29T23:48:16.248Z,70.90
2022-11-29T23:50:43.786Z,72.50
2022-11-29T23:53:13.176Z,69.43
2022-11-29T23:55:39.625Z,67.30
2022-11-29T23:58:06.534Z,68.75
